Time;durP1;ratioP1;P1;durP2;ratioP2;P2;SDS_P1;SDS_P2;PMS_P1;PMS_P2;Temp;Humidity;BMP_temperature;BMP_pressure;BME280_temperature;BME280_humidity;BME280_pressure;Samples;Min_cycle;Max_cycle;Signal;HPM_P1;HPM_P2
2022/07/01 00:01:41;;;;;;;6.55;0.77;;;18.50;99.90;;;;;;5031403;28;20098;-48
2022/07/01 00:04:07;;;;;;;4.20;0.52;;;18.60;99.90;;;;;;5031494;28;20033;-52
2022/07/01 00:06:33;;;;;;;0.47;0.38;;;18.50;99.90;;;;;;5031432;28;20104;-51
2022/07/01 00:08:59;;;;;;;2.20;0.35;;;18.50;99.90;;;;;;5030725;28;20132;-47
2022/07/01 00:11:24;;;;;;;0.55;0.43;;;18.40;99.90;;;;;;5031232;28;20172;-48
2022/07/01 00:13:50;;;;;;;3.95;0.80;;;18.50;99.90;;;;;;5031359;28;20493;-48
2022/07/01 00:16:15;;;;;;;1.52;0.70;;;18.40;99.90;;;;;;5031288;28;20033;-51
2022/07/01 00:18:41;;;;;;;1.50;0.60;;;18.30;99.90;;;;;;5030602;28;20044;-50
2022/07/01 00:21:06;;;;;;;1.10;0.60;;;18.30;99.90;;;;;;5031215;28;20030;-53
2022/07/01 00:23:32;;;;;;;0.63;0.40;;;18.10;99.90;;;;;;5031461;28;20034;-53
2022/07/01 00:25:58;;;;;;;0.50;0.50;;;18.10;99.90;;;;;;5033090;28;20057;-51
2022/07/01 00:28:23;;;;;;;1.02;0.47;;;17.90;99.90;;;;;;5034481;28;20057;-51
2022/07/01 00:30:49;;;;;;;0.40;0.40;;;17.70;99.90;;;;;;5035198;28;20116;-49
2022/07/01 00:33:14;;;;;;;0.50;0.50;;;17.60;99.90;;;;;;5035238;28;20056;-52
2022/07/01 00:35:40;;;;;;;0.45;0.45;;;17.50;99.90;;;;;;5035070;28;20071;-50
2022/07/01 00:38:05;;;;;;;1.70;0.50;;;17.40;99.90;;;;;;5034369;28;20397;-47
2022/07/01 00:40:31;;;;;;;3.25;0.75;;;17.30;99.90;;;;;;5035013;28;20029;-52
2022/07/01 00:42:56;;;;;;;0.40;0.40;;;17.30;99.90;;;;;;5033469;28;20108;-53
2022/07/01 00:45:22;;;;;;;2.72;0.65;;;17.20;99.90;;;;;;5034967;28;20037;-47
2022/07/01 00:47:47;;;;;;;1.65;0.60;;;17.20;99.90;;;;;;5034271;28;20030;-48
2022/07/01 00:50:15;;;;;;;1.25;0.82;;;17.00;99.90;;;;;;5034978;28;20046;-48
2022/07/01 00:52:42;;;;;;;2.05;0.60;;;17.10;99.90;;;;;;5034959;28;20225;-49
2022/07/01 00:55:11;;;;;;;1.40;0.70;;;17.10;99.90;;;;;;5034747;28;20025;-53
2022/07/01 00:57:39;;;;;;;0.55;0.47;;;17.10;99.90;;;;;;5034066;28;20148;-46
2022/07/01 01:00:07;;;;;;;1.13;0.70;;;17.10;99.90;;;;;;5034690;28;20167;-48
2022/07/01 01:02:33;;;;;;;4.70;0.90;;;17.10;99.90;;;;;;5054319;23;20034;-47
2022/07/01 01:04:59;;;;;;;1.42;0.40;;;17.10;99.90;;;;;;5033485;28;20056;-47
2022/07/01 01:07:25;;;;;;;0.43;0.40;;;17.10;99.90;;;;;;5033658;28;20057;-47
2022/07/01 01:09:51;;;;;;;2.08;0.50;;;17.00;99.90;;;;;;5034178;28;20100;-46
2022/07/01 01:12:17;;;;;;;1.10;0.60;;;16.90;99.90;;;;;;5034367;28;20052;-48
2022/07/01 01:14:44;;;;;;;2.22;0.68;;;16.80;99.90;;;;;;5034519;28;20385;-47
2022/07/01 01:17:10;;;;;;;3.35;0.70;;;16.80;99.90;;;;;;5033387;28;20017;-47
2022/07/01 01:19:36;;;;;;;0.68;0.68;;;16.80;99.90;;;;;;5034211;28;20029;-48
2022/07/01 01:22:01;;;;;;;0.65;0.40;;;16.80;99.90;;;;;;5034076;28;20393;-47
2022/07/01 01:24:27;;;;;;;0.95;0.60;;;16.70;99.90;;;;;;5034226;28;20489;-50
2022/07/01 01:26:52;;;;;;;2.03;0.60;;;16.70;99.90;;;;;;5033235;28;20022;-45
2022/07/01 01:29:18;;;;;;;1.52;0.60;;;16.60;99.90;;;;;;5016521;28;20032;-49
2022/07/01 01:31:43;;;;;;;1.58;0.50;;;16.50;99.90;;;;;;5033965;28;20026;-51
2022/07/01 01:34:09;;;;;;;0.40;0.40;;;16.50;99.90;;;;;;5033792;28;20080;-51
2022/07/01 01:36:35;;;;;;;0.77;0.77;;;16.50;99.90;;;;;;5033327;28;20035;-50
2022/07/01 01:39:12;;;;;;;0.75;0.52;;;16.40;99.90;;;;;;5033003;28;20109;-47
2022/07/01 01:41:37;;;;;;;1.13;0.60;;;16.40;99.90;;;;;;5033706;28;20422;-50
2022/07/01 01:44:03;;;;;;;1.58;0.73;;;16.50;99.90;;;;;;5033767;28;20129;-48
2022/07/01 01:46:30;;;;;;;1.35;0.70;;;16.50;99.90;;;;;;5033531;28;20037;-47
2022/07/01 01:48:55;;;;;;;2.85;0.50;;;16.50;99.90;;;;;;5033025;28;20021;-47
2022/07/01 01:51:21;;;;;;;2.70;0.50;;;16.50;99.90;;;;;;5033566;28;20033;-46
2022/07/01 01:53:47;;;;;;;0.50;0.50;;;16.50;99.90;;;;;;5033505;28;20022;-47
2022/07/01 01:56:12;;;;;;;0.75;0.40;;;16.50;99.90;;;;;;5015557;28;20025;-47
2022/07/01 01:58:42;;;;;;;1.98;0.47;;;16.40;99.90;;;;;;5032815;28;20035;-50
2022/07/01 02:01:10;;;;;;;5.80;0.60;;;16.50;99.90;;;;;;5033355;28;20026;-47
2022/07/01 02:03:36;;;;;;;1.40;0.85;;;16.40;99.90;;;;;;5033234;28;20029;-47
2022/07/01 02:06:03;;;;;;;2.47;0.60;;;16.30;99.90;;;;;;5033640;28;20081;-48
2022/07/01 02:08:28;;;;;;;1.23;0.60;;;16.30;99.90;;;;;;5033107;28;20535;-48
2022/07/01 02:10:54;;;;;;;3.47;1.00;;;16.30;99.90;;;;;;5033120;28;20022;-46
2022/07/01 02:13:19;;;;;;;3.15;0.82;;;16.40;99.90;;;;;;5033418;28;20025;-49
2022/07/01 02:15:45;;;;;;;0.38;0.38;;;16.50;99.90;;;;;;5033615;28;20021;-47
2022/07/01 02:18:10;;;;;;;0.40;0.40;;;16.50;99.90;;;;;;5032609;28;20025;-48
2022/07/01 02:20:36;;;;;;;3.05;0.50;;;16.50;99.90;;;;;;5033338;28;20083;-52
2022/07/01 02:23:01;;;;;;;3.05;0.68;;;16.50;99.90;;;;;;5033004;28;20056;-50
2022/07/01 02:25:27;;;;;;;1.17;0.60;;;16.40;99.90;;;;;;5033140;28;20033;-48
2022/07/01 02:27:52;;;;;;;0.40;0.40;;;16.30;99.90;;;;;;5032286;28;20033;-52
2022/07/01 02:30:18;;;;;;;1.05;1.05;;;16.30;99.90;;;;;;5032927;28;20029;-50
2022/07/01 02:32:43;;;;;;;3.30;0.68;;;16.40;99.90;;;;;;5015111;28;20085;-48
2022/07/01 02:35:10;;;;;;;4.20;0.77;;;16.40;99.90;;;;;;5032842;28;20503;-48
2022/07/01 02:37:35;;;;;;;6.03;0.55;;;16.40;99.90;;;;;;5032021;28;20021;-47
2022/07/01 02:40:01;;;;;;;0.50;0.50;;;16.40;99.90;;;;;;5015007;28;20072;-49
2022/07/01 02:42:27;;;;;;;1.05;0.63;;;16.40;99.90;;;;;;5014300;28;20546;-48
2022/07/01 02:44:54;;;;;;;2.35;0.50;;;16.40;99.90;;;;;;5032032;28;20028;-52
2022/07/01 02:47:22;;;;;;;0.60;0.32;;;16.40;99.90;;;;;;5031791;28;20091;-49
2022/07/01 02:49:48;;;;;;;2.03;0.30;;;16.40;99.90;;;;;;5031558;28;20060;-49
2022/07/01 02:52:15;;;;;;;0.40;0.40;;;16.50;99.90;;;;;;5032507;28;20527;-48
2022/07/01 02:54:41;;;;;;;0.60;0.50;;;16.50;99.90;;;;;;5032561;28;20021;-48
2022/07/01 02:57:07;;;;;;;0.57;0.57;;;16.50;99.90;;;;;;5031657;28;20022;-47
2022/07/01 02:59:32;;;;;;;4.03;0.60;;;16.60;99.90;;;;;;5032631;28;20083;-51
2022/07/01 03:01:58;;;;;;;3.22;0.65;;;16.70;99.90;;;;;;5032199;28;20394;-52
2022/07/01 03:04:24;;;;;;;0.90;0.68;;;16.60;99.90;;;;;;5014692;28;20028;-51
2022/07/01 03:06:49;;;;;;;3.17;0.50;;;16.60;99.90;;;;;;5031733;28;20025;-51
2022/07/01 03:09:15;;;;;;;1.35;0.60;;;16.60;99.90;;;;;;5014184;28;20030;-52
2022/07/01 03:11:40;;;;;;;0.65;0.40;;;16.70;99.90;;;;;;5031907;28;20033;-52
2022/07/01 03:14:06;;;;;;;0.75;0.50;;;16.60;99.90;;;;;;5032261;28;20041;-49
2022/07/01 03:16:31;;;;;;;0.68;0.45;;;16.70;99.90;;;;;;5014259;28;20089;-47
2022/07/01 03:18:57;;;;;;;0.90;0.55;;;16.60;99.90;;;;;;5031539;28;20021;-50
2022/07/01 03:21:22;;;;;;;1.55;0.50;;;16.60;99.90;;;;;;5032036;28;20025;-49
2022/07/01 03:23:48;;;;;;;2.28;0.60;;;16.60;99.90;;;;;;5014405;28;20029;-48
2022/07/01 03:26:14;;;;;;;1.25;0.57;;;16.50;99.90;;;;;;5014152;28;20041;-46
2022/07/01 03:28:40;;;;;;;0.65;0.50;;;16.40;99.90;;;;;;5031113;28;20083;-47
2022/07/01 03:31:06;;;;;;;0.35;0.35;;;16.40;99.90;;;;;;5031880;28;20439;-44
2022/07/01 03:33:31;;;;;;;1.25;0.60;;;16.40;99.90;;;;;;5014111;28;20113;-47
2022/07/01 03:35:57;;;;;;;2.38;0.70;;;16.40;99.90;;;;;;5013951;28;20404;-48
2022/07/01 03:38:22;;;;;;;0.55;0.55;;;16.40;99.90;;;;;;5031485;28;20022;-47
2022/07/01 03:40:48;;;;;;;4.97;0.80;;;16.30;99.90;;;;;;5032127;28;20416;-50
2022/07/01 03:43:13;;;;;;;1.08;0.57;;;16.20;99.90;;;;;;5029770;28;20120;-47
2022/07/01 03:45:39;;;;;;;0.60;0.60;;;16.20;99.90;;;;;;5031608;28;20513;-49
2022/07/01 03:48:05;;;;;;;0.85;0.70;;;16.20;99.90;;;;;;5030830;28;20078;-47
2022/07/01 03:50:30;;;;;;;0.80;0.70;;;16.10;99.90;;;;;;5031543;28;20025;-49
2022/07/01 03:55:41;;;;;;;0.60;0.60;;;16.10;99.90;;;;;;5031666;28;20052;-46
2022/07/01 03:58:06;;;;;;;6.93;0.88;;;16.20;99.90;;;;;;5031038;28;20033;-48
2022/07/01 04:00:35;;;;;;;0.57;0.57;;;16.10;99.90;;;;;;5031229;28;20397;-49
2022/07/01 04:03:00;;;;;;;1.58;0.60;;;16.10;99.90;;;;;;5031628;28;20441;-48
2022/07/01 04:05:26;;;;;;;2.40;0.68;;;16.10;99.90;;;;;;5031260;28;20021;-48
2022/07/01 04:07:52;;;;;;;2.08;0.80;;;16.10;99.90;;;;;;5030817;28;20026;-48
2022/07/01 04:10:17;;;;;;;0.60;0.60;;;16.00;99.90;;;;;;5031411;28;20025;-47
2022/07/01 04:12:43;;;;;;;0.60;0.60;;;16.00;99.90;;;;;;5031291;28;20486;-49
2022/07/01 04:15:10;;;;;;;0.80;0.60;;;16.00;99.90;;;;;;5031354;28;20506;-46
2022/07/01 04:17:35;;;;;;;0.70;0.70;;;15.90;99.90;;;;;;5030578;28;20032;-53
2022/07/01 04:20:01;;;;;;;0.70;0.68;;;15.90;99.90;;;;;;5030040;28;20025;-49
2022/07/01 04:22:33;;;;;;;0.60;0.60;;;15.90;99.90;;;;;;5031666;28;20101;-48
2022/07/01 04:25:03;;;;;;;1.40;0.65;;;15.90;99.90;;;;;;5030786;28;20142;-53
2022/07/01 04:27:30;;;;;;;0.63;0.63;;;15.90;99.90;;;;;;5030538;28;20029;-52
2022/07/01 04:29:56;;;;;;;0.63;0.60;;;15.90;99.90;;;;;;5031341;28;20025;-53
2022/07/01 04:32:22;;;;;;;0.77;0.60;;;15.90;99.90;;;;;;5031521;28;20038;-48
2022/07/01 04:34:47;;;;;;;1.85;0.80;;;15.90;99.90;;;;;;5029540;28;20508;-53
2022/07/01 04:37:13;;;;;;;2.20;0.70;;;15.90;99.90;;;;;;5030606;28;20048;-46
2022/07/01 04:39:38;;;;;;;1.48;0.80;;;15.90;99.90;;;;;;5030794;28;20044;-46
2022/07/01 04:42:04;;;;;;;1.75;0.50;;;15.80;99.90;;;;;;5031179;28;20031;-48
2022/07/01 04:44:35;;;;;;;0.43;0.43;;;15.90;99.90;;;;;;5029441;28;20030;-48
2022/07/01 04:47:02;;;;;;;2.35;0.70;;;15.90;99.90;;;;;;5030396;28;20022;-47
2022/07/01 04:49:28;;;;;;;0.80;0.80;;;16.00;99.90;;;;;;5030667;28;20037;-51
2022/07/01 04:51:54;;;;;;;0.77;0.77;;;16.00;99.90;;;;;;5030382;28;20022;-49
2022/07/01 04:54:20;;;;;;;2.35;0.73;;;16.10;99.90;;;;;;5030710;28;20036;-52
2022/07/01 04:56:46;;;;;;;1.70;0.70;;;16.10;99.90;;;;;;5030167;28;20030;-46
2022/07/01 04:59:13;;;;;;;0.60;0.60;;;16.00;99.90;;;;;;5030760;28;20030;-46
2022/07/01 05:01:39;;;;;;;3.85;0.90;;;16.00;99.90;;;;;;5031042;28;20116;-51
2022/07/01 05:04:05;;;;;;;1.75;0.68;;;16.00;99.90;;;;;;5030957;28;20520;-48
2022/07/01 05:06:30;;;;;;;1.35;0.88;;;16.10;99.90;;;;;;5030855;28;20069;-45
2022/07/01 05:08:56;;;;;;;1.05;0.70;;;16.10;99.90;;;;;;5029991;28;20029;-49
2022/07/01 05:11:21;;;;;;;1.80;0.75;;;16.20;99.90;;;;;;5031059;28;20075;-48
2022/07/01 05:13:47;;;;;;;1.65;0.82;;;16.30;99.90;;;;;;5034043;28;20017;-50
2022/07/01 05:16:12;;;;;;;1.67;0.70;;;16.20;99.90;;;;;;5034076;28;20505;-49
2022/07/01 05:24:07;;;;;;;2.60;1.10;;;16.20;99.90;;;;;;5034728;28;20120;-47
2022/07/01 05:26:32;;;;;;;4.78;0.80;;;16.20;99.90;;;;;;5034212;28;20057;-49
2022/07/01 05:28:58;;;;;;;2.15;0.90;;;16.20;99.90;;;;;;5033580;28;20041;-51
2022/07/01 05:31:24;;;;;;;0.98;0.98;;;16.20;99.90;;;;;;5033318;28;20112;-50
2022/07/01 05:33:49;;;;;;;0.75;0.70;;;16.30;99.90;;;;;;5033584;28;20486;-49
2022/07/01 05:36:16;;;;;;;2.85;0.70;;;16.30;99.90;;;;;;5033782;28;20029;-47
2022/07/01 05:38:42;;;;;;;2.00;0.75;;;16.50;99.90;;;;;;5033145;28;20014;-50
2022/07/01 05:41:08;;;;;;;1.48;1.00;;;16.70;99.90;;;;;;5033928;28;20021;-48
2022/07/01 05:43:34;;;;;;;1.92;0.80;;;16.70;99.90;;;;;;5033928;28;20021;-49
2022/07/01 05:46:00;;;;;;;0.93;0.70;;;16.90;99.90;;;;;;5033586;28;20041;-48
2022/07/01 05:48:25;;;;;;;0.73;0.73;;;17.20;99.90;;;;;;5033055;28;20025;-47
2022/07/01 05:50:51;;;;;;;0.80;0.80;;;17.30;99.90;;;;;;5033521;28;20030;-49
2022/07/01 05:53:17;;;;;;;3.70;0.80;;;17.50;99.90;;;;;;5033523;28;20017;-49
2022/07/01 05:55:43;;;;;;;4.35;1.00;;;17.60;99.90;;;;;;5033237;28;20131;-53
2022/07/01 05:58:11;;;;;;;1.33;0.90;;;17.60;99.90;;;;;;5032781;28;20076;-51
2022/07/01 06:00:37;;;;;;;3.22;0.80;;;17.60;99.90;;;;;;5033135;28;20112;-46
2022/07/01 06:03:03;;;;;;;1.55;0.90;;;17.50;99.90;;;;;;5032598;28;20155;-50
2022/07/01 06:05:30;;;;;;;1.65;0.95;;;17.60;99.90;;;;;;5033377;28;20450;-53
2022/07/01 06:07:56;;;;;;;1.83;1.13;;;17.50;99.90;;;;;;5032280;28;20021;-49
2022/07/01 06:10:21;;;;;;;4.13;0.98;;;17.40;99.90;;;;;;5015175;28;20029;-48
2022/07/01 06:12:47;;;;;;;6.55;1.42;;;17.40;99.90;;;;;;5033465;28;20041;-47
2022/07/01 06:15:13;;;;;;;0.85;0.80;;;17.50;99.90;;;;;;5030913;28;20033;-47
2022/07/01 06:17:40;;;;;;;1.95;0.70;;;17.70;99.90;;;;;;5031784;28;20051;-46
2022/07/01 06:20:07;;;;;;;1.77;0.80;;;18.00;99.90;;;;;;5033151;28;20026;-48
2022/07/01 06:22:33;;;;;;;2.42;1.17;;;18.40;99.90;;;;;;5032135;28;20045;-47
2022/07/01 06:24:59;;;;;;;1.52;1.35;;;18.50;99.90;;;;;;5032080;28;20041;-49
2022/07/01 06:27:25;;;;;;;1.88;0.93;;;18.60;99.90;;;;;;5031571;28;20397;-48
2022/07/01 06:29:51;;;;;;;1.80;0.93;;;18.50;99.90;;;;;;5032500;28;20029;-47
2022/07/01 06:32:17;;;;;;;1.63;0.88;;;18.50;99.90;;;;;;5033052;28;20029;-49
2022/07/01 06:34:42;;;;;;;2.35;0.93;;;18.40;99.90;;;;;;5032683;28;20389;-47
2022/07/01 06:37:08;;;;;;;1.17;0.70;;;18.30;99.90;;;;;;5031991;28;20048;-48
2022/07/01 06:39:33;;;;;;;3.65;1.30;;;18.10;99.90;;;;;;5032732;28;20038;-50
2022/07/01 06:41:59;;;;;;;4.20;1.00;;;18.10;99.90;;;;;;5032682;28;20029;-49
2022/07/01 06:44:25;;;;;;;2.90;1.20;;;17.90;99.90;;;;;;5032272;28;20038;-52
2022/07/01 06:46:50;;;;;;;3.13;1.10;;;17.90;99.90;;;;;;5030926;28;20029;-55
2022/07/01 06:49:16;;;;;;;1.40;0.95;;;17.80;99.90;;;;;;5032094;28;20043;-50
2022/07/01 06:51:41;;;;;;;5.60;1.30;;;17.70;99.90;;;;;;5032539;28;20483;-49
2022/07/01 06:54:08;;;;;;;2.78;1.10;;;17.50;99.90;;;;;;5032444;28;20025;-52
2022/07/01 06:56:33;;;;;;;2.90;1.45;;;17.60;99.90;;;;;;5014783;28;20060;-51
2022/07/01 06:58:59;;;;;;;6.38;1.50;;;17.60;99.90;;;;;;5031528;28;20059;-53
2022/07/01 07:01:24;;;;;;;1.52;1.08;;;17.40;99.90;;;;;;5030655;28;20025;-53
2022/07/01 07:03:50;;;;;;;2.95;1.40;;;17.30;99.90;;;;;;5065411;23;20393;-49
2022/07/01 07:06:16;;;;;;;3.63;1.17;;;17.20;99.90;;;;;;5052543;28;20047;-52
2022/07/01 07:08:42;;;;;;;1.63;1.02;;;17.20;99.90;;;;;;5051098;28;20048;-51
2022/07/01 07:11:08;;;;;;;3.63;1.23;;;17.30;99.90;;;;;;5052078;28;20060;-49
2022/07/01 07:13:37;;;;;;;1.73;1.55;;;17.30;99.90;;;;;;5052060;28;20074;-48
2022/07/01 07:16:03;;;;;;;2.80;1.48;;;17.20;99.90;;;;;;5051944;28;20092;-50
2022/07/01 07:18:29;;;;;;;1.73;1.23;;;17.20;99.90;;;;;;5033489;28;20124;-51
2022/07/01 07:20:54;;;;;;;5.57;1.45;;;17.00;99.90;;;;;;5052368;28;20064;-51
2022/07/01 07:23:20;;;;;;;2.20;1.23;;;16.90;99.90;;;;;;5051653;28;20025;-52
2022/07/01 07:25:45;;;;;;;1.33;1.20;;;16.80;99.90;;;;;;5051765;28;20033;-50
2022/07/01 07:28:11;;;;;;;2.22;1.45;;;16.80;99.90;;;;;;5033102;28;20060;-54
2022/07/01 07:30:37;;;;;;;5.57;1.25;;;16.70;99.90;;;;;;5051554;28;20040;-50
2022/07/01 07:33:02;;;;;;;2.70;1.48;;;16.80;99.90;;;;;;5051451;28;20029;-49
2022/07/01 07:35:28;;;;;;;1.98;1.75;;;16.70;99.90;;;;;;5051232;28;20516;-50
2022/07/01 07:37:53;;;;;;;2.65;1.40;;;16.60;99.90;;;;;;5050800;28;20021;-50
2022/07/01 07:40:19;;;;;;;2.25;1.27;;;16.60;99.90;;;;;;5051505;28;20477;-52
2022/07/01 07:42:46;;;;;;;5.20;1.55;;;16.60;99.90;;;;;;5051358;28;20025;-52
2022/07/01 07:45:13;;;;;;;1.65;1.02;;;16.60;99.90;;;;;;5051364;28;20020;-52
2022/07/01 07:47:45;;;;;;;1.70;1.60;;;16.60;99.90;;;;;;5050703;28;20039;-50
2022/07/01 07:50:12;;;;;;;1.50;1.27;;;16.70;99.90;;;;;;5051470;28;20112;-53
2022/07/01 07:52:39;;;;;;;1.67;1.40;;;16.70;99.90;;;;;;5051356;28;20507;-53
2022/07/01 07:55:07;;;;;;;1.42;1.30;;;16.80;99.90;;;;;;5051412;28;20087;-53
2022/07/01 07:57:33;;;;;;;3.03;1.25;;;16.70;99.90;;;;;;5050407;28;20024;-50
2022/07/01 07:59:59;;;;;;;2.85;1.48;;;16.70;99.90;;;;;;5049965;28;20025;-53
2022/07/01 08:02:24;;;;;;;2.67;1.63;;;16.70;99.90;;;;;;5049983;28;20035;-52
2022/07/01 08:04:50;;;;;;;2.38;1.63;;;16.70;99.90;;;;;;5047706;28;20021;-52
2022/07/01 08:07:15;;;;;;;2.35;1.20;;;16.70;99.90;;;;;;5050509;28;20036;-49
2022/07/01 08:09:45;;;;;;;2.00;1.48;;;16.70;99.90;;;;;;5039548;28;20022;-55
2022/07/01 08:12:12;;;;;;;4.90;1.45;;;16.70;99.90;;;;;;5031274;28;20022;-56
2022/07/01 08:14:37;;;;;;;6.10;1.58;;;16.70;99.90;;;;;;5038428;28;20096;-55
2022/07/01 08:17:03;;;;;;;1.95;1.27;;;16.80;99.90;;;;;;5050333;28;20100;-53
2022/07/01 08:19:28;;;;;;;4.95;1.38;;;16.70;99.90;;;;;;5034010;28;20029;-53
2022/07/01 08:21:54;;;;;;;1.48;1.38;;;16.80;99.90;;;;;;5051428;28;20075;-51
2022/07/01 08:24:19;;;;;;;11.20;5.28;;;16.80;99.90;;;;;;5050528;28;20052;-54
2022/07/01 08:26:45;;;;;;;3.88;2.53;;;16.80;99.90;;;;;;5050855;28;20455;-53
2022/07/01 08:29:10;;;;;;;9.20;4.03;;;16.80;99.90;;;;;;5037471;28;20049;-54
2022/07/01 08:31:36;;;;;;;2.75;1.60;;;16.90;99.90;;;;;;5051172;28;20036;-54
2022/07/01 08:34:02;;;;;;;1.83;1.17;;;17.00;99.90;;;;;;5050794;28;20025;-49
2022/07/01 08:36:27;;;;;;;1.45;1.35;;;16.90;99.90;;;;;;5050578;28;20511;-51
2022/07/01 08:38:53;;;;;;;2.28;1.50;;;16.90;99.90;;;;;;5049275;28;20079;-54
2022/07/01 08:41:19;;;;;;;2.17;1.20;;;17.00;99.90;;;;;;5046903;28;20466;-53
2022/07/01 08:43:45;;;;;;;7.72;1.27;;;17.00;99.90;;;;;;5026753;28;20025;-49
2022/07/01 08:46:11;;;;;;;5.18;1.48;;;17.10;99.90;;;;;;5050210;28;20028;-55
2022/07/01 08:48:36;;;;;;;1.73;1.38;;;17.20;99.90;;;;;;5052532;28;20039;-52
2022/07/01 08:51:04;;;;;;;1.60;1.13;;;17.30;99.90;;;;;;5054568;28;20028;-51
2022/07/01 08:53:30;;;;;;;1.55;1.15;;;17.30;99.90;;;;;;5054283;28;20104;-54
2022/07/01 08:58:48;;;;;;;2.22;1.20;;;17.20;99.90;;;;;;5016072;28;20036;-51
2022/07/01 09:01:23;;;;;;;1.35;1.13;;;17.20;99.90;;;;;;5054544;28;20021;-51
2022/07/01 09:03:50;;;;;;;1.30;1.20;;;17.20;99.90;;;;;;5054245;28;20159;-53
2022/07/01 09:06:22;;;;;;;1.30;1.20;;;17.10;99.90;;;;;;5054409;28;20647;-52
2022/07/01 09:08:48;;;;;;;3.03;1.52;;;17.10;99.90;;;;;;5053976;28;20443;-49
2022/07/01 09:11:15;;;;;;;2.95;1.65;;;17.20;99.90;;;;;;5054325;28;20504;-53
2022/07/01 09:13:42;;;;;;;1.05;1.05;;;17.20;99.90;;;;;;5054221;28;20138;-55
2022/07/01 09:16:12;;;;;;;2.35;1.27;;;17.10;99.90;;;;;;5054157;28;20017;-51
2022/07/01 09:18:37;;;;;;;3.83;1.50;;;17.20;99.90;;;;;;5035489;28;20025;-51
2022/07/01 09:21:13;;;;;;;5.55;1.45;;;17.30;99.90;;;;;;5036171;28;20139;-52
2022/07/01 09:23:39;;;;;;;1.83;1.23;;;17.20;99.90;;;;;;5054085;28;20485;-50
2022/07/01 09:26:04;;;;;;;3.47;1.90;;;17.20;99.90;;;;;;5054005;28;20090;-53
2022/07/01 09:28:30;;;;;;;1.50;1.20;;;17.20;99.90;;;;;;5053440;28;20078;-49
2022/07/01 09:30:59;;;;;;;4.38;1.38;;;17.20;99.90;;;;;;5053984;28;20061;-53
2022/07/01 09:33:26;;;;;;;1.95;1.10;;;17.20;99.90;;;;;;5054155;28;20100;-50
2022/07/01 09:35:53;;;;;;;2.47;1.27;;;17.20;99.90;;;;;;5053883;28;20036;-49
2022/07/01 09:38:23;;;;;;;2.30;1.10;;;17.20;99.90;;;;;;5053164;28;20035;-50
2022/07/01 09:41:01;;;;;;;2.10;1.10;;;17.30;99.90;;;;;;5053912;28;20024;-56
2022/07/01 09:43:32;;;;;;;2.05;1.15;;;17.50;99.90;;;;;;5053612;28;20060;-50
2022/07/01 09:46:00;;;;;;;2.80;1.48;;;17.70;99.90;;;;;;5053585;28;20029;-50
2022/07/01 09:48:46;;;;;;;2.60;1.30;;;17.90;99.90;;;;;;5052947;28;20017;-51
2022/07/01 09:51:14;;;;;;;1.73;1.63;;;18.10;99.90;;;;;;5053117;28;20500;-53
2022/07/01 09:53:40;;;;;;;1.63;1.02;;;18.20;99.90;;;;;;5053442;28;20484;-50
2022/07/01 09:56:05;;;;;;;2.80;1.30;;;18.30;99.90;;;;;;5052636;28;20074;-50
2022/07/01 09:58:32;;;;;;;1.30;1.17;;;18.50;99.90;;;;;;5053058;28;20029;-51
2022/07/01 10:00:58;;;;;;;6.30;4.15;;;18.80;99.90;;;;;;5054065;28;20032;-49
2022/07/01 10:03:26;;;;;;;6.57;3.65;;;19.00;99.90;;;;;;5053669;28;20032;-50
2022/07/01 10:06:06;;;;;;;2.42;1.65;;;19.10;99.90;;;;;;5053992;28;20437;-49
2022/07/01 10:09:13;;;;;;;5.07;0.98;;;19.30;99.90;;;;;;5053120;28;20028;-51
2022/07/01 10:12:06;;;;;;;3.67;1.20;;;19.40;99.90;;;;;;5053276;28;20060;-52
2022/07/01 10:14:36;;;;;;;1.75;1.65;;;19.50;99.90;;;;;;5053484;28;20025;-47
2022/07/01 10:17:02;;;;;;;1.65;1.30;;;19.70;99.90;;;;;;5052439;28;20032;-49
2022/07/01 10:19:30;;;;;;;8.13;1.50;;;19.80;99.90;;;;;;5053170;28;20488;-50
2022/07/01 10:21:59;;;;;;;2.15;0.93;;;19.90;99.90;;;;;;5053145;28;20043;-48
2022/07/01 10:24:26;;;;;;;1.58;1.10;;;20.10;99.90;;;;;;5035271;28;20029;-52
2022/07/01 10:26:57;;;;;;;2.25;1.30;;;20.20;99.90;;;;;;5052066;28;20503;-50
2022/07/01 10:29:38;;;;;;;4.53;1.30;;;20.40;99.90;;;;;;5034957;28;20029;-52
2022/07/01 10:32:11;;;;;;;1.88;1.10;;;20.50;99.90;;;;;;5053004;28;20060;-51
2022/07/01 10:34:39;;;;;;;1.30;1.05;;;20.70;99.90;;;;;;5052843;28;20025;-48
2022/07/01 10:37:08;;;;;;;5.50;1.15;;;20.60;99.90;;;;;;5034222;28;20029;-49
2022/07/01 10:40:03;;;;;;;6.55;1.50;;;20.60;99.90;;;;;;5052686;28;20036;-54
2022/07/01 10:42:30;;;;;;;2.05;1.00;;;20.70;99.90;;;;;;5052616;28;20036;-51
2022/07/01 10:45:17;;;;;;;4.32;1.25;;;20.70;99.90;;;;;;5052719;28;20412;-50
2022/07/01 10:47:43;;;;;;;2.60;1.50;;;20.60;99.90;;;;;;5051930;28;20496;-50
2022/07/01 10:50:09;;;;;;;3.55;1.52;;;20.60;99.90;;;;;;5052801;28;20527;-50
2022/07/01 10:52:35;;;;;;;5.55;1.50;;;20.70;99.90;;;;;;5034640;28;20028;-53
2022/07/01 10:55:03;;;;;;;3.90;1.60;;;20.70;99.30;;;;;;5034577;28;20025;-47
2022/07/01 10:57:32;;;;;;;4.93;1.38;;;20.80;99.40;;;;;;5050468;28;20036;-54
2022/07/01 11:00:00;;;;;;;5.95;3.38;;;20.80;98.90;;;;;;5052320;28;20043;-53
2022/07/01 11:02:33;;;;;;;8.98;4.88;;;20.70;98.50;;;;;;5034290;28;20023;-55
2022/07/01 11:05:07;;;;;;;5.13;3.28;;;20.40;98.70;;;;;;5052582;28;20024;-49
2022/07/01 11:07:34;;;;;;;5.10;2.70;;;20.20;99.60;;;;;;5051525;28;20032;-52
2022/07/01 11:10:02;;;;;;;5.13;3.30;;;20.00;99.70;;;;;;5051102;28;20036;-52
2022/07/01 11:12:28;;;;;;;3.30;2.00;;;20.00;99.90;;;;;;5051984;28;20046;-50
2022/07/01 11:14:57;;;;;;;2.40;1.55;;;19.90;99.90;;;;;;5034166;28;20462;-50
2022/07/01 11:17:23;;;;;;;3.03;1.40;;;20.00;99.90;;;;;;5051436;28;20451;-51
2022/07/01 11:19:49;;;;;;;1.45;1.20;;;20.10;99.90;;;;;;5052087;28;20103;-49
2022/07/01 11:22:23;;;;;;;2.55;1.58;;;20.30;99.20;;;;;;5051905;28;20029;-49
2022/07/01 11:24:54;;;;;;;3.20;1.40;;;20.50;98.40;;;;;;5051924;28;20028;-49
2022/07/01 11:27:21;;;;;;;5.75;1.35;;;20.40;98.60;;;;;;5051108;28;20433;-51
2022/07/01 11:29:52;;;;;;;1.92;1.25;;;20.40;98.70;;;;;;5051665;28;20104;-51
2022/07/01 11:32:28;;;;;;;3.38;1.30;;;20.40;98.80;;;;;;5050817;28;20033;-53
2022/07/01 11:34:54;;;;;;;1.58;1.00;;;20.50;99.20;;;;;;5050634;28;20021;-47
2022/07/01 11:40:08;;;;;;;2.38;1.48;;;20.50;98.40;;;;;;5051808;28;20044;-49
2022/07/01 11:42:34;;;;;;;9.77;5.80;;;20.40;98.20;;;;;;5051570;28;20121;-52
2022/07/01 11:45:00;;;;;;;3.38;1.08;;;20.40;98.70;;;;;;5047793;28;20029;-50
2022/07/01 11:47:26;;;;;;;1.30;1.20;;;20.40;98.60;;;;;;5049940;28;20021;-48
2022/07/01 11:49:53;;;;;;;2.15;1.02;;;20.50;99.90;;;;;;5050850;28;20388;-50
2022/07/01 11:52:20;;;;;;;2.88;1.10;;;20.40;99.50;;;;;;5051079;28;20084;-48
2022/07/01 11:54:51;;;;;;;1.98;0.98;;;20.30;99.50;;;;;;5051066;28;20033;-49
2022/07/01 11:57:22;;;;;;;4.07;1.00;;;20.20;99.00;;;;;;5050472;28;20420;-52
2022/07/01 11:59:49;;;;;;;1.17;1.00;;;20.20;98.90;;;;;;5044587;28;20523;-49
2022/07/01 12:02:17;;;;;;;2.90;1.17;;;20.10;99.00;;;;;;5031205;28;20031;-51
2022/07/01 12:04:43;;;;;;;3.30;1.02;;;20.10;99.60;;;;;;5047743;28;20506;-50
2022/07/01 12:07:10;;;;;;;0.98;0.98;;;20.10;99.00;;;;;;5038278;28;20109;-53
2022/07/01 12:09:36;;;;;;;1.13;0.98;;;20.10;98.40;;;;;;5039412;28;20523;-50
2022/07/01 12:12:02;;;;;;;4.00;0.93;;;20.10;98.90;;;;;;5045946;28;20104;-53
2022/07/01 12:14:35;;;;;;;2.22;1.20;;;20.10;98.90;;;;;;5037346;28;20029;-53
2022/07/01 12:17:04;;;;;;;2.33;1.23;;;20.30;98.80;;;;;;5050276;28;20392;-55
2022/07/01 12:19:42;;;;;;;1.10;1.00;;;20.40;99.00;;;;;;5051380;28;20017;-54
2022/07/01 12:22:09;;;;;;;1.95;1.15;;;20.40;99.10;;;;;;5035005;28;20022;-50
2022/07/01 12:24:35;;;;;;;2.60;1.02;;;20.40;98.90;;;;;;5035482;28;20025;-53
2022/07/01 12:27:02;;;;;;;2.60;1.00;;;20.40;99.20;;;;;;5016950;28;20044;-53
2022/07/01 12:29:30;;;;;;;5.15;1.15;;;20.20;99.40;;;;;;5035493;28;20026;-50
2022/07/01 12:32:00;;;;;;;1.13;0.90;;;20.20;99.80;;;;;;5035436;28;20029;-52
2022/07/01 12:34:47;;;;;;;4.22;1.17;;;20.10;99.50;;;;;;5036800;28;20034;-52
2022/07/01 12:37:37;;;;;;;0.95;0.63;;;20.00;99.70;;;;;;5053832;28;20044;-51
2022/07/01 12:40:06;;;;;;;5.70;0.93;;;19.90;99.30;;;;;;5054993;28;20036;-52
2022/07/01 12:42:43;;;;;;;5.97;0.93;;;19.90;99.30;;;;;;5054578;28;20033;-49
2022/07/01 12:45:14;;;;;;;2.30;0.90;;;20.00;99.10;;;;;;5054858;28;20357;-55
2022/07/01 12:47:44;;;;;;;1.73;1.00;;;20.10;99.60;;;;;;5054131;28;20039;-55
2022/07/01 12:50:09;;;;;;;4.30;1.02;;;20.30;99.70;;;;;;5047007;28;20358;-51
2022/07/01 12:52:35;;;;;;;5.03;1.25;;;20.50;99.50;;;;;;5054869;28;20028;-49
2022/07/01 12:55:11;;;;;;;2.67;0.65;;;20.70;99.40;;;;;;5054828;28;20127;-54
2022/07/01 12:57:37;;;;;;;4.03;0.70;;;20.90;98.80;;;;;;5054182;28;20071;-50
2022/07/01 13:00:03;;;;;;;4.90;1.02;;;20.80;97.20;;;;;;5054975;28;20021;-47
2022/07/01 13:02:29;;;;;;;2.75;1.10;;;20.70;97.30;;;;;;5054471;28;20044;-48